If you wish to contribute or participate in the discussions about articles you are invited to join SKYbrary as a registered user

 Actions

Angoulême-Brie-Champniers Airport

From SKYbrary Wiki

LFBU
Airport
ICAO: LFBU – IATA: ANG
Summary
Name Angoulême-Brie-Champniers Airport
Region Europe
Territory France FR.gif
Location , Poitou-Charentes
Serving Angouleme
Elevation 132.893 m
436 ft
436 ft132.893 m
Type medium airport
Coordinates 45° 43' 45.29" N, 0° 13' 17.24" E
Runways
Designator Length Width Surface ROPS
10/28 1810 m5,938.32 ft
45 m147.638 ft
ASP /


METAR
Observation LFBU 272030Z AUTO 19011KT 150V240 9999 -RADZ OVC006 13/12 Q1012 TEMPO 20015G25KT 4000 RADZ BECMG BKN025
Station BRIE CHAMPNIERS
Date/Time 27 October 2020 20:30:00
Wind direction 190°
Wind speed 11 kts
Lowest cloud amount overcast
Temperature 13°C
Dew point 12°C
Humidity 93%
QNH 1012 hPa
Weather condition drizzle